createdAt,value
2019-02-22T00:01:39.933Z,10.45
2019-02-22T00:04:09.522Z,10.50
2019-02-22T00:06:39.087Z,10.55
2019-02-22T00:09:09.218Z,10.48
2019-02-22T00:11:38.805Z,10.48
2019-02-22T00:14:08.657Z,10.55
2019-02-22T00:16:38.211Z,10.58
2019-02-22T00:19:07.762Z,10.61
2019-02-22T00:21:37.329Z,10.52
2019-02-22T00:24:06.870Z,10.51
2019-02-22T00:26:36.451Z,10.54
2019-02-22T00:29:06.052Z,10.53
2019-02-22T00:31:35.603Z,10.54
2019-02-22T00:34:05.179Z,10.55
2019-02-22T00:36:34.790Z,10.59
2019-02-22T00:39:05.316Z,10.61
2019-02-22T00:41:35.002Z,10.61
2019-02-22T00:44:04.663Z,10.55
2019-02-22T00:46:34.269Z,10.52
2019-02-22T00:49:03.871Z,10.50
2019-02-22T00:51:33.464Z,10.48
2019-02-22T00:54:03.318Z,10.47
2019-02-22T00:56:32.849Z,10.50
2019-02-22T00:59:02.420Z,10.47
2019-02-22T01:01:33.446Z,10.45
2019-02-22T01:04:03.018Z,10.47
2019-02-22T01:06:32.545Z,10.47
2019-02-22T01:09:02.099Z,10.48
2019-02-22T01:11:32.742Z,10.50
2019-02-22T01:14:02.283Z,10.47
2019-02-22T01:16:31.862Z,10.46
2019-02-22T01:19:01.378Z,10.49
2019-02-22T01:21:31.212Z,10.54
2019-02-22T01:24:00.770Z,10.57
2019-02-22T01:26:30.461Z,10.56
2019-02-22T01:29:00.224Z,10.57
2019-02-22T01:31:29.772Z,10.57
2019-02-22T01:33:59.346Z,10.54
2019-02-22T01:36:28.906Z,10.53
2019-02-22T01:38:58.457Z,10.48
2019-02-22T01:41:28.029Z,10.44
2019-02-22T01:43:57.647Z,10.42
2019-02-22T01:46:27.592Z,10.35
2019-02-22T01:48:57.237Z,10.35
2019-02-22T01:51:26.786Z,10.37
2019-02-22T01:53:56.375Z,10.34
2019-02-22T01:56:25.940Z,10.39
2019-02-22T01:58:55.462Z,10.45
2019-02-22T02:01:25.087Z,10.48
2019-02-22T02:03:54.632Z,10.47
2019-02-22T02:06:24.206Z,10.46
2019-02-22T02:08:56.776Z,10.50
2019-02-22T02:11:26.353Z,10.45
2019-02-22T02:13:59.213Z,10.41
2019-02-22T02:16:28.822Z,10.42
2019-02-22T02:18:58.419Z,10.47
2019-02-22T02:21:27.929Z,10.44
2019-02-22T02:23:57.559Z,10.42
2019-02-22T02:26:27.138Z,10.44
2019-02-22T02:28:56.694Z,10.47
2019-02-22T02:31:26.231Z,10.46
2019-02-22T02:33:58.280Z,10.46
2019-02-22T02:36:27.047Z,10.46
2019-02-22T02:38:56.632Z,10.48
2019-02-22T02:41:26.177Z,10.39
2019-02-22T02:43:57.371Z,10.40
2019-02-22T02:46:27.205Z,10.41
2019-02-22T02:48:56.723Z,10.43
2019-02-22T02:51:26.271Z,10.44
2019-02-22T02:53:58.309Z,10.46
2019-02-22T02:56:27.451Z,10.45
2019-02-22T02:58:56.969Z,10.44
2019-02-22T03:01:26.498Z,10.46
2019-02-22T03:03:57.671Z,10.48
2019-02-22T03:06:31.484Z,10.43
2019-02-22T03:09:01.055Z,10.40
2019-02-22T03:11:30.604Z,10.41
2019-02-22T03:14:00.154Z,10.44
2019-02-22T03:16:29.777Z,10.48
2019-02-22T03:18:59.348Z,10.50
2019-02-22T03:21:28.935Z,10.52
2019-02-22T03:24:01.399Z,10.49
2019-02-22T03:26:31.992Z,10.49
2019-02-22T03:29:01.549Z,10.47
2019-02-22T03:31:31.278Z,10.48
2019-02-22T03:34:01.083Z,10.45
2019-02-22T03:36:30.628Z,10.40
2019-02-22T03:39:00.215Z,10.35
2019-02-22T03:41:34.122Z,10.29
2019-02-22T03:44:01.068Z,10.27
2019-02-22T03:46:30.637Z,10.24
2019-02-22T03:49:00.202Z,10.23
2019-02-22T03:51:29.773Z,10.17
2019-02-22T03:53:59.313Z,10.14
2019-02-22T03:56:28.918Z,10.09
2019-02-22T03:58:58.863Z,10.11
2019-02-22T04:01:28.487Z,10.15
2019-02-22T04:03:58.060Z,10.16
2019-02-22T04:06:27.610Z,10.14
2019-02-22T04:08:57.187Z,10.11
2019-02-22T04:11:26.749Z,10.06
2019-02-22T04:13:59.042Z,10.01
2019-02-22T04:16:28.595Z,10.02
2019-02-22T04:18:58.139Z,10.01
2019-02-22T04:21:27.687Z,9.96
2019-02-22T04:23:57.263Z,10.00
2019-02-22T04:26:26.860Z,10.04
2019-02-22T04:28:56.394Z,10.05
2019-02-22T04:31:25.942Z,10.10
2019-02-22T04:33:56.957Z,10.13
2019-02-22T04:36:26.552Z,10.16
2019-02-22T04:38:56.101Z,10.16
2019-02-22T04:41:25.650Z,10.13
2019-02-22T04:43:55.458Z,10.02
2019-02-22T04:46:25.027Z,10.07
2019-02-22T04:48:55.280Z,9.98
2019-02-22T04:51:24.834Z,10.00
2019-02-22T04:53:54.639Z,9.99
2019-02-22T04:56:24.180Z,10.04
2019-02-22T04:58:53.995Z,10.07
2019-02-22T05:01:23.553Z,10.12
2019-02-22T05:03:53.105Z,10.16
2019-02-22T05:06:22.657Z,10.18
2019-02-22T05:08:52.243Z,10.16
2019-02-22T05:11:21.803Z,10.13
2019-02-22T05:13:51.375Z,10.10
2019-02-22T05:16:20.914Z,10.08
2019-02-22T05:18:50.459Z,10.05
2019-02-22T05:21:20.050Z,10.02
2019-02-22T05:23:49.598Z,10.00
2019-02-22T05:26:19.175Z,10.02
2019-02-22T05:28:48.701Z,10.00
2019-02-22T05:31:19.279Z,9.96
2019-02-22T05:33:50.512Z,9.93
2019-02-22T05:36:20.155Z,9.84
2019-02-22T05:38:49.691Z,9.80
2019-02-22T05:41:19.521Z,9.84
2019-02-22T05:43:49.063Z,9.90
2019-02-22T05:46:18.619Z,9.93
2019-02-22T05:48:48.153Z,9.91
2019-02-22T05:51:19.211Z,9.88
2019-02-22T05:53:50.435Z,9.91
2019-02-22T05:56:19.969Z,9.90
2019-02-22T05:58:49.507Z,9.87
2019-02-22T06:01:19.073Z,9.85
2019-02-22T06:03:48.641Z,9.91
2019-02-22T06:06:18.166Z,9.86
2019-02-22T06:08:47.719Z,9.85
2019-02-22T06:11:18.412Z,9.89
2019-02-22T06:13:48.035Z,9.96
2019-02-22T06:16:17.629Z,10.01
2019-02-22T06:18:47.620Z,10.05
2019-02-22T06:21:17.151Z,10.08
2019-02-22T06:23:48.139Z,10.10
2019-02-22T06:26:18.763Z,10.14
2019-02-22T06:28:48.331Z,10.15
2019-02-22T06:31:19.595Z,10.17
2019-02-22T06:33:49.570Z,10.19
2019-02-22T06:36:19.238Z,10.17
2019-02-22T06:38:48.921Z,10.17
2019-02-22T06:41:21.362Z,10.19
2019-02-22T06:43:50.880Z,10.21
2019-02-22T06:46:22.083Z,10.24
2019-02-22T06:48:51.635Z,10.28
2019-02-22T06:51:22.852Z,10.29
2019-02-22T06:53:53.798Z,10.30
2019-02-22T06:56:24.279Z,10.32
2019-02-22T06:58:56.502Z,10.29
2019-02-22T07:01:26.028Z,10.27
2019-02-22T07:03:55.842Z,10.28
2019-02-22T07:06:26.430Z,10.21
2019-02-22T07:08:58.914Z,10.26
2019-02-22T07:11:32.509Z,10.27
2019-02-22T07:14:02.046Z,10.27
2019-02-22T07:16:31.624Z,10.29
2019-02-22T07:19:01.223Z,10.31
2019-02-22T07:21:40.382Z,10.30
2019-02-22T07:24:03.820Z,10.31
2019-02-22T07:26:33.446Z,10.23
2019-02-22T07:29:03.059Z,10.22
2019-02-22T07:31:34.032Z,10.24
2019-02-22T07:34:06.199Z,10.24
2019-02-22T07:36:37.189Z,10.25
2019-02-22T07:39:07.521Z,10.28
2019-02-22T07:41:37.086Z,10.30
2019-02-22T07:44:07.426Z,10.28
2019-02-22T07:46:42.092Z,10.24
2019-02-22T07:49:11.642Z,10.14
2019-02-22T07:51:41.287Z,10.17
2019-02-22T07:54:12.317Z,10.20
2019-02-22T07:56:41.913Z,10.23
2019-02-22T07:59:14.497Z,10.18
2019-02-22T08:01:47.918Z,10.21
2019-02-22T08:04:17.119Z,10.17
2019-02-22T08:06:47.131Z,10.16
2019-02-22T08:09:16.656Z,10.21
2019-02-22T08:11:47.497Z,10.21
2019-02-22T08:14:17.675Z,10.22
2019-02-22T08:16:53.192Z,10.20
2019-02-22T08:19:22.762Z,10.16
2019-02-22T08:21:52.309Z,10.20
2019-02-22T08:24:21.902Z,10.25
2019-02-22T08:26:51.978Z,10.26
2019-02-22T08:29:22.344Z,10.26
2019-02-22T08:31:54.474Z,10.29
2019-02-22T08:34:24.293Z,10.30
2019-02-22T08:36:53.936Z,10.28
2019-02-22T08:39:26.226Z,10.32
2019-02-22T08:41:55.973Z,10.37
2019-02-22T08:44:25.512Z,10.41
2019-02-22T08:46:55.199Z,10.33
2019-02-22T08:49:24.739Z,10.32
2019-02-22T08:51:54.278Z,10.40
2019-02-22T08:54:23.857Z,10.46
2019-02-22T08:56:53.880Z,10.53
2019-02-22T08:59:25.887Z,10.56
2019-02-22T09:01:57.050Z,10.58
2019-02-22T09:04:26.598Z,10.65
2019-02-22T09:07:02.080Z,10.69
2019-02-22T09:09:31.954Z,10.73
2019-02-22T09:12:01.534Z,10.75
2019-02-22T09:14:31.122Z,10.78
2019-02-22T09:17:01.328Z,10.84
2019-02-22T09:19:31.058Z,10.84
2019-02-22T09:22:00.633Z,10.81
2019-02-22T09:24:30.163Z,10.87
2019-02-22T09:26:59.767Z,10.99
2019-02-22T09:29:31.096Z,10.95
2019-02-22T09:32:00.743Z,10.97
2019-02-22T09:34:30.283Z,10.96
2019-02-22T09:36:59.871Z,11.00
2019-02-22T09:39:31.245Z,10.94
2019-02-22T09:42:00.766Z,10.97
2019-02-22T09:44:30.345Z,11.11
2019-02-22T09:47:01.550Z,11.20
2019-02-22T09:49:32.215Z,11.28
2019-02-22T09:52:01.770Z,11.19
2019-02-22T09:54:31.412Z,11.15
2019-02-22T09:57:05.050Z,11.27
2019-02-22T09:59:36.285Z,11.35
2019-02-22T10:02:05.876Z,11.44
2019-02-22T10:04:35.441Z,11.50
2019-02-22T10:07:05.011Z,11.56
2019-02-22T10:09:34.590Z,11.58
2019-02-22T10:12:07.382Z,11.59
2019-02-22T10:14:37.783Z,11.54
2019-02-22T10:17:07.333Z,11.58
2019-02-22T10:19:42.652Z,11.70
2019-02-22T10:22:12.430Z,11.83
2019-02-22T10:24:44.753Z,11.89
2019-02-22T10:27:16.148Z,12.02
2019-02-22T10:29:45.705Z,12.12
2019-02-22T10:32:15.984Z,12.23
2019-02-22T10:34:47.664Z,12.21
2019-02-22T10:37:18.049Z,12.37
2019-02-22T10:39:48.608Z,12.39
2019-02-22T10:42:18.182Z,12.40
2019-02-22T10:44:47.748Z,12.46
2019-02-22T10:47:21.905Z,12.53
2019-02-22T10:49:53.123Z,12.52
2019-02-22T10:52:22.690Z,12.46
2019-02-22T10:54:52.293Z,12.38
2019-02-22T10:57:22.023Z,12.28
2019-02-22T10:59:52.007Z,12.29
2019-02-22T11:02:22.005Z,12.26
2019-02-22T11:04:52.992Z,12.20
2019-02-22T11:07:22.572Z,12.16
2019-02-22T11:09:52.157Z,12.18
2019-02-22T11:12:21.733Z,12.17
2019-02-22T11:14:51.394Z,12.21
2019-02-22T11:17:20.930Z,12.18
2019-02-22T11:19:53.343Z,12.13
2019-02-22T11:22:22.916Z,12.14
2019-02-22T11:24:53.086Z,12.16
2019-02-22T11:27:22.731Z,12.13
2019-02-22T11:29:52.365Z,12.10
2019-02-22T11:32:24.649Z,12.08
2019-02-22T11:34:55.078Z,12.11
2019-02-22T11:37:25.664Z,12.17
2019-02-22T11:39:56.828Z,12.12
2019-02-22T11:42:27.737Z,12.17
2019-02-22T11:44:59.090Z,12.24
2019-02-22T11:47:28.684Z,12.28
2019-02-22T11:49:58.265Z,12.35
2019-02-22T11:52:27.807Z,12.45
2019-02-22T11:54:58.546Z,12.55
2019-02-22T11:57:31.484Z,12.60
2019-02-22T12:00:01.066Z,12.60
2019-02-22T12:02:31.825Z,12.65
2019-02-22T12:05:01.361Z,12.69
2019-02-22T12:07:31.793Z,12.81
2019-02-22T12:10:01.634Z,12.86
2019-02-22T12:12:31.720Z,12.85
2019-02-22T12:15:02.337Z,12.78
2019-02-22T12:17:31.834Z,12.78
2019-02-22T12:20:01.767Z,12.81
2019-02-22T12:22:32.428Z,12.78
2019-02-22T12:25:02.368Z,12.72
2019-02-22T12:27:32.553Z,12.67
2019-02-22T12:30:02.111Z,12.58
2019-02-22T12:32:32.784Z,12.53
2019-02-22T12:35:02.365Z,12.57
2019-02-22T12:37:31.901Z,12.63
2019-02-22T12:40:03.340Z,12.68
2019-02-22T12:42:32.922Z,12.73
2019-02-22T12:45:03.590Z,12.72
2019-02-22T12:47:33.304Z,12.71
2019-02-22T12:50:02.896Z,12.72
2019-02-22T12:52:37.119Z,12.77
2019-02-22T12:55:11.597Z,12.77
2019-02-22T12:57:41.178Z,12.76
2019-02-22T13:00:14.470Z,12.75
2019-02-22T13:02:44.306Z,12.73
2019-02-22T13:05:20.875Z,12.75
2019-02-22T13:07:52.569Z,12.78
2019-02-22T13:10:22.986Z,12.77
2019-02-22T13:12:56.321Z,12.72
2019-02-22T13:15:25.926Z,12.78
2019-02-22T13:17:55.523Z,12.86
2019-02-22T13:20:25.842Z,12.94
2019-02-22T13:22:55.794Z,12.92
2019-02-22T13:25:25.479Z,12.91
2019-02-22T13:27:55.422Z,12.93
2019-02-22T13:30:25.314Z,12.92
2019-02-22T13:32:54.941Z,12.92
2019-02-22T13:35:24.553Z,12.88
2019-02-22T13:37:54.094Z,12.84
2019-02-22T13:40:24.319Z,12.81
2019-02-22T13:42:55.470Z,12.78
2019-02-22T13:45:27.033Z,12.73
2019-02-22T13:47:57.927Z,12.69
2019-02-22T13:50:27.982Z,12.68
2019-02-22T13:52:58.061Z,12.68
2019-02-22T13:55:28.040Z,12.63
2019-02-22T13:57:58.286Z,12.57
2019-02-22T14:00:27.819Z,12.58
2019-02-22T14:02:58.161Z,12.55
2019-02-22T14:05:27.715Z,12.54
2019-02-22T14:08:00.253Z,12.55
2019-02-22T14:10:33.886Z,12.60
2019-02-22T14:13:03.432Z,12.64
2019-02-22T14:15:37.864Z,12.70
2019-02-22T14:18:06.455Z,12.74
2019-02-22T14:20:36.022Z,12.82
2019-02-22T14:23:05.639Z,12.86
2019-02-22T14:25:35.551Z,12.85
2019-02-22T14:28:05.663Z,12.79
2019-02-22T14:30:36.497Z,12.75
2019-02-22T14:33:06.137Z,12.70
2019-02-22T14:35:36.119Z,12.64
2019-02-22T14:38:06.132Z,12.69
2019-02-22T14:40:38.794Z,12.71
2019-02-22T14:43:16.067Z,12.73
2019-02-22T14:45:48.939Z,12.70
2019-02-22T14:48:12.228Z,12.67
2019-02-22T14:50:41.781Z,12.64
2019-02-22T14:53:19.416Z,12.62
2019-02-22T14:55:43.512Z,12.65
2019-02-22T14:58:13.543Z,12.59
2019-02-22T15:00:43.819Z,12.57
2019-02-22T15:03:17.794Z,12.62
2019-02-22T15:05:47.317Z,12.67
2019-02-22T15:08:18.981Z,12.67
2019-02-22T15:10:49.038Z,12.66
2019-02-22T15:13:18.689Z,12.66
2019-02-22T15:16:00.616Z,12.59
2019-02-22T15:18:24.595Z,12.62
2019-02-22T15:20:54.161Z,12.60
2019-02-22T15:23:23.709Z,12.55
2019-02-22T15:25:54.299Z,12.59
2019-02-22T15:28:26.354Z,12.57
2019-02-22T15:30:55.158Z,12.57
2019-02-22T15:33:25.724Z,12.56
2019-02-22T15:35:55.311Z,12.58
2019-02-22T15:38:24.883Z,12.58
2019-02-22T15:40:54.471Z,12.57
2019-02-22T15:43:24.094Z,12.54
2019-02-22T15:45:54.001Z,12.53
2019-02-22T15:48:23.867Z,12.45
2019-02-22T15:50:53.696Z,12.39
2019-02-22T15:53:25.013Z,12.41
2019-02-22T15:55:54.874Z,12.42
2019-02-22T15:58:24.947Z,12.46
2019-02-22T16:00:54.646Z,12.43
2019-02-22T16:03:25.965Z,12.37
2019-02-22T16:05:55.543Z,12.33
2019-02-22T16:08:25.347Z,12.33
2019-02-22T16:10:55.004Z,12.28
2019-02-22T16:13:25.180Z,12.27
2019-02-22T16:15:55.792Z,12.28
2019-02-22T16:18:26.461Z,12.22
2019-02-22T16:20:56.508Z,12.18
2019-02-22T16:23:26.166Z,12.12
2019-02-22T16:26:00.083Z,12.15
2019-02-22T16:28:30.355Z,12.10
2019-02-22T16:30:59.945Z,12.05
2019-02-22T16:33:30.044Z,11.98
2019-02-22T16:35:59.909Z,11.88
2019-02-22T16:38:31.137Z,11.87
2019-02-22T16:41:02.355Z,11.83
2019-02-22T16:43:32.669Z,11.79
2019-02-22T16:46:02.512Z,11.70
2019-02-22T16:48:32.639Z,11.66
2019-02-22T16:51:02.753Z,11.61
2019-02-22T16:53:32.714Z,11.55
2019-02-22T16:56:02.755Z,11.52
2019-02-22T16:58:32.601Z,11.49
2019-02-22T17:01:02.278Z,11.48
2019-02-22T17:03:33.478Z,11.45
2019-02-22T17:06:02.977Z,11.46
2019-02-22T17:08:32.537Z,11.46
2019-02-22T17:11:03.735Z,11.44
2019-02-22T17:13:33.280Z,11.40
2019-02-22T17:16:03.375Z,11.41
2019-02-22T17:18:33.401Z,11.36
2019-02-22T17:21:03.537Z,11.37
2019-02-22T17:23:33.571Z,11.34
2019-02-22T17:26:03.663Z,11.30
2019-02-22T17:28:36.333Z,11.26
2019-02-22T17:31:42.995Z,11.23
2019-02-22T17:34:15.538Z,11.22
2019-02-22T17:36:45.909Z,11.19
2019-02-22T17:39:15.899Z,11.20
2019-02-22T17:41:46.000Z,11.22
2019-02-22T17:44:17.142Z,11.17
2019-02-22T17:46:56.568Z,11.15
2019-02-22T17:49:17.964Z,11.18
2019-02-22T17:51:47.532Z,11.19
2019-02-22T17:54:18.356Z,11.19
2019-02-22T17:56:47.941Z,11.18
2019-02-22T17:59:17.537Z,11.19
2019-02-22T18:01:51.534Z,11.17
2019-02-22T18:04:21.073Z,11.12
2019-02-22T18:06:51.684Z,11.09
2019-02-22T18:09:21.556Z,11.08
2019-02-22T18:11:51.139Z,11.05
2019-02-22T18:14:21.440Z,11.04
2019-02-22T18:16:51.488Z,11.02
2019-02-22T18:19:21.614Z,11.01
2019-02-22T18:21:51.755Z,11.02
2019-02-22T18:24:21.669Z,11.04
2019-02-22T18:26:51.701Z,11.01
2019-02-22T18:29:21.238Z,11.01
2019-02-22T18:31:52.910Z,10.98
2019-02-22T18:34:22.898Z,10.95
2019-02-22T18:36:53.025Z,10.97
2019-02-22T18:39:22.847Z,10.89
2019-02-22T18:41:52.411Z,10.84
2019-02-22T18:44:21.964Z,10.81
2019-02-22T18:46:51.521Z,10.83
2019-02-22T18:49:21.082Z,10.78
2019-02-22T18:51:50.901Z,10.80
2019-02-22T18:54:20.518Z,10.72
2019-02-22T18:56:51.697Z,10.63
2019-02-22T18:59:21.203Z,10.59
2019-02-22T19:01:50.841Z,10.55
2019-02-22T19:04:20.361Z,10.51
2019-02-22T19:06:49.903Z,10.47
2019-02-22T19:09:19.489Z,10.42
2019-02-22T19:11:49.015Z,10.38
2019-02-22T19:14:18.628Z,10.38
2019-02-22T19:16:49.493Z,10.33
2019-02-22T19:19:19.039Z,10.29
2019-02-22T19:21:48.810Z,10.26
2019-02-22T19:24:21.812Z,10.19
2019-02-22T19:26:51.436Z,10.17
2019-02-22T19:29:21.430Z,10.09
2019-02-22T19:31:52.757Z,10.06
2019-02-22T19:34:22.316Z,10.01
2019-02-22T19:36:51.845Z,9.95
2019-02-22T19:39:22.568Z,9.91
2019-02-22T19:41:54.157Z,9.88
2019-02-22T19:44:23.728Z,9.82
2019-02-22T19:46:55.596Z,9.82
2019-02-22T19:49:26.078Z,9.78
2019-02-22T19:51:56.858Z,9.79
2019-02-22T19:54:28.076Z,9.76
2019-02-22T19:56:57.603Z,9.65
2019-02-22T19:59:31.165Z,9.62
2019-02-22T20:02:00.649Z,9.61
2019-02-22T20:04:30.578Z,9.59
2019-02-22T20:07:01.837Z,9.57
2019-02-22T20:09:31.375Z,9.57
2019-02-22T20:12:01.231Z,9.59
2019-02-22T20:14:32.508Z,9.58
2019-02-22T20:17:02.122Z,9.57
2019-02-22T20:19:31.719Z,9.57
2019-02-22T20:22:01.264Z,9.52
2019-02-22T20:24:30.942Z,9.51
2019-02-22T20:27:03.722Z,9.56
2019-02-22T20:29:34.616Z,9.52
2019-02-22T20:32:05.325Z,9.31
2019-02-22T20:34:34.860Z,9.13
2019-02-22T20:37:05.101Z,9.08
2019-02-22T20:39:35.984Z,9.04
2019-02-22T20:42:05.572Z,9.00
2019-02-22T20:44:36.915Z,9.01
2019-02-22T20:47:08.431Z,9.03
2019-02-22T20:49:41.072Z,8.94
2019-02-22T20:52:10.374Z,8.81
2019-02-22T20:54:40.179Z,8.75
2019-02-22T20:57:09.768Z,8.72
2019-02-22T20:59:41.229Z,8.67
2019-02-22T21:02:12.413Z,8.68
2019-02-22T21:04:42.046Z,8.64
2019-02-22T21:07:11.581Z,8.58
2019-02-22T21:09:43.942Z,8.51
2019-02-22T21:12:13.583Z,8.51
2019-02-22T21:14:43.188Z,8.43
2019-02-22T21:17:18.681Z,8.43
2019-02-22T21:19:48.261Z,8.40
2019-02-22T21:22:18.118Z,8.39
2019-02-22T21:24:50.874Z,8.36
2019-02-22T21:27:22.033Z,8.36
2019-02-22T21:29:52.615Z,8.30
2019-02-22T21:32:23.695Z,8.32
2019-02-22T21:34:53.288Z,8.26
2019-02-22T21:37:23.228Z,8.19
2019-02-22T21:39:55.641Z,8.16
2019-02-22T21:42:27.022Z,8.12
2019-02-22T21:44:56.605Z,8.02
2019-02-22T21:47:26.661Z,7.99
2019-02-22T21:49:56.332Z,7.99
2019-02-22T21:52:26.229Z,7.99
2019-02-22T21:54:55.747Z,7.97
2019-02-22T21:57:25.355Z,7.98
2019-02-22T21:59:59.141Z,7.95
2019-02-22T22:02:28.812Z,7.89
2019-02-22T22:04:58.742Z,7.86
2019-02-22T22:07:28.286Z,7.81
2019-02-22T22:09:58.101Z,7.80
2019-02-22T22:12:27.619Z,7.80
2019-02-22T22:14:57.175Z,7.83
2019-02-22T22:17:26.717Z,7.84
2019-02-22T22:19:56.320Z,7.83
2019-02-22T22:22:25.850Z,7.76
2019-02-22T22:24:55.411Z,7.72
2019-02-22T22:27:26.262Z,7.68
2019-02-22T22:29:55.829Z,7.63
2019-02-22T22:32:25.377Z,7.61
2019-02-22T22:34:54.924Z,7.61
2019-02-22T22:37:24.455Z,7.57
2019-02-22T22:39:54.032Z,7.52
2019-02-22T22:42:23.568Z,7.46
2019-02-22T22:44:53.155Z,7.41
2019-02-22T22:47:22.760Z,7.41
2019-02-22T22:49:52.305Z,7.48
2019-02-22T22:52:21.878Z,7.42
2019-02-22T22:54:51.450Z,7.34
2019-02-22T22:57:22.239Z,7.27
2019-02-22T22:59:51.752Z,7.21
2019-02-22T23:02:21.282Z,7.12
2019-02-22T23:04:56.529Z,7.14
2019-02-22T23:07:27.291Z,7.09
2019-02-22T23:09:56.829Z,7.08
2019-02-22T23:12:26.391Z,7.09
2019-02-22T23:14:55.952Z,7.02
2019-02-22T23:17:25.576Z,6.99
2019-02-22T23:19:55.120Z,6.98
2019-02-22T23:22:24.666Z,6.98
2019-02-22T23:24:54.236Z,6.94
2019-02-22T23:27:25.298Z,6.89
2019-02-22T23:29:56.773Z,6.82
2019-02-22T23:32:26.072Z,6.77
2019-02-22T23:34:55.625Z,6.72
2019-02-22T23:37:25.191Z,6.71
2019-02-22T23:39:54.713Z,6.68
2019-02-22T23:42:24.925Z,6.62
2019-02-22T23:44:54.521Z,6.58
2019-02-22T23:47:25.420Z,6.58
2019-02-22T23:49:55.264Z,6.58
2019-02-22T23:52:24.943Z,6.53
2019-02-22T23:54:54.712Z,6.51
2019-02-22T23:57:24.259Z,6.52
2019-02-22T23:59:58.517Z,6.45
